Time;durP1;ratioP1;P1;durP2;ratioP2;P2;SDS_P1;SDS_P2;PMS_P1;PMS_P2;Temp;Humidity;BMP_temperature;BMP_pressure;BME280_temperature;BME280_humidity;BME280_pressure;Samples;Min_cycle;Max_cycle;Signal;HPM_P1;HPM_P2
2022/09/02 00:01:01;;;;;;;1.52;0.80;;;19.70;59.10;;;;;;5060811;28;20476;-87
2022/09/02 00:03:33;;;;;;;1.55;0.95;;;19.80;59.10;;;;;;5068511;28;20044;-88
2022/09/02 00:06:06;;;;;;;2.08;0.93;;;19.80;59.00;;;;;;5080463;28;20088;-87
2022/09/02 00:08:31;;;;;;;2.63;0.90;;;19.70;59.00;;;;;;5081334;28;20025;-86
2022/09/02 00:10:59;;;;;;;2.45;1.00;;;19.70;59.10;;;;;;5081063;28;20009;-88
2022/09/02 00:13:26;;;;;;;2.05;0.93;;;19.70;59.10;;;;;;5098172;28;20088;-88
2022/09/02 00:15:53;;;;;;;3.20;1.00;;;19.60;59.10;;;;;;5097051;28;20035;-88
2022/09/02 00:18:25;;;;;;;1.67;1.00;;;19.60;59.30;;;;;;5065025;28;20040;-88
2022/09/02 00:20:51;;;;;;;4.80;1.05;;;19.50;59.20;;;;;;5059703;28;20399;-87
2022/09/02 00:23:18;;;;;;;1.60;1.00;;;19.50;59.40;;;;;;5078371;28;20052;-87
2022/09/02 00:25:45;;;;;;;1.27;0.70;;;19.30;59.50;;;;;;5077473;28;20085;-89
2022/09/02 00:28:14;;;;;;;2.00;0.98;;;19.30;59.70;;;;;;5060299;28;20047;-87
2022/09/02 00:30:44;;;;;;;2.28;1.08;;;19.30;59.70;;;;;;5078384;28;20029;-89
2022/09/02 00:33:12;;;;;;;0.90;0.70;;;19.30;59.80;;;;;;5060752;28;20092;-87
2022/09/02 00:35:38;;;;;;;1.40;1.08;;;19.30;59.80;;;;;;5059972;28;20024;-88
2022/09/02 00:38:09;;;;;;;1.30;0.70;;;19.30;59.80;;;;;;5077292;28;20379;-88
2022/09/02 00:40:44;;;;;;;0.60;0.60;;;19.30;59.90;;;;;;5042999;28;20162;-88
2022/09/02 00:43:10;;;;;;;3.85;0.73;;;19.30;59.80;;;;;;5061757;28;20024;-87
2022/09/02 00:45:38;;;;;;;3.03;0.77;;;19.40;59.80;;;;;;5063501;28;20020;-88
2022/09/02 00:48:07;;;;;;;1.05;0.68;;;19.30;59.80;;;;;;5081042;28;20399;-88
2022/09/02 00:50:35;;;;;;;1.20;0.70;;;19.30;59.90;;;;;;5081154;28;20029;-87
2022/09/02 00:53:08;;;;;;;3.00;1.10;;;19.20;60.00;;;;;;5063304;28;20028;-87
2022/09/02 00:55:43;;;;;;;2.40;0.88;;;19.20;60.10;;;;;;5064300;28;20042;-88
2022/09/02 00:58:28;;;;;;;2.85;0.75;;;19.20;60.20;;;;;;5064597;28;20036;-87
2022/09/02 01:00:56;;;;;;;1.20;0.55;;;19.20;60.30;;;;;;5064234;28;20505;-87
2022/09/02 01:03:25;;;;;;;1.42;0.50;;;19.10;60.30;;;;;;5081806;28;20032;-88
2022/09/02 01:05:53;;;;;;;0.70;0.52;;;19.10;60.50;;;;;;5081865;28;20021;-87
2022/09/02 01:08:24;;;;;;;2.47;0.70;;;19.10;60.60;;;;;;5063587;28;20020;-88
2022/09/02 01:10:54;;;;;;;1.15;0.57;;;19.10;60.70;;;;;;5063499;28;20443;-90
2022/09/02 01:13:24;;;;;;;1.10;0.60;;;19.10;60.70;;;;;;5063582;28;20052;-87
2022/09/02 01:15:57;;;;;;;1.63;0.60;;;19.10;60.80;;;;;;5080798;28;20025;-88
2022/09/02 01:18:29;;;;;;;2.05;0.98;;;19.10;61.00;;;;;;5081696;28;20047;-86
2022/09/02 01:21:01;;;;;;;2.40;0.63;;;19.10;61.20;;;;;;5081220;28;20070;-89
2022/09/02 01:23:28;;;;;;;1.63;0.45;;;19.10;61.30;;;;;;5063801;28;20024;-88
2022/09/02 01:25:59;;;;;;;1.75;0.63;;;19.00;61.50;;;;;;5064029;28;20040;-88
2022/09/02 01:28:25;;;;;;;0.80;0.60;;;19.00;61.50;;;;;;5063505;28;20056;-86
2022/09/02 01:30:53;;;;;;;2.88;0.70;;;18.90;61.50;;;;;;5063516;28;20408;-88
2022/09/02 01:33:22;;;;;;;1.08;0.63;;;18.90;61.70;;;;;;5063197;28;20017;-89
2022/09/02 01:35:48;;;;;;;1.15;0.80;;;18.90;61.70;;;;;;5063524;28;20028;-88
2022/09/02 01:38:14;;;;;;;1.70;0.70;;;18.90;61.70;;;;;;5063303;28;20055;-88
2022/09/02 01:40:46;;;;;;;0.95;0.80;;;18.80;61.80;;;;;;5081294;28;20032;-88
2022/09/02 01:43:21;;;;;;;1.48;0.65;;;18.90;61.80;;;;;;5067373;28;20048;-88
2022/09/02 01:45:48;;;;;;;1.48;0.50;;;18.90;61.80;;;;;;5063860;28;20417;-88
2022/09/02 01:48:15;;;;;;;1.02;0.52;;;18.90;61.70;;;;;;5086591;28;20048;-87
2022/09/02 01:50:45;;;;;;;1.42;0.70;;;18.90;61.70;;;;;;5070094;28;20020;-88
2022/09/02 01:53:11;;;;;;;1.85;0.52;;;18.90;61.80;;;;;;5086736;28;20028;-88
2022/09/02 01:55:37;;;;;;;1.80;0.70;;;18.90;61.80;;;;;;5067059;28;20025;-87
2022/09/02 01:58:03;;;;;;;3.05;0.73;;;18.90;61.70;;;;;;5084774;28;20024;-87
2022/09/02 02:00:31;;;;;;;0.93;0.60;;;18.90;61.80;;;;;;5083331;28;20027;-88
2022/09/02 02:02:57;;;;;;;1.35;0.70;;;18.80;61.80;;;;;;5081983;28;20037;-89
2022/09/02 02:05:25;;;;;;;1.02;0.70;;;18.80;61.90;;;;;;5083240;28;20016;-87
2022/09/02 02:07:51;;;;;;;1.58;0.60;;;18.80;62.00;;;;;;5066789;28;20009;-87
2022/09/02 02:10:20;;;;;;;0.70;0.60;;;18.80;62.10;;;;;;5100134;28;20043;-88
2022/09/02 02:12:48;;;;;;;1.42;0.50;;;18.80;62.10;;;;;;5077808;28;20039;-87
2022/09/02 02:15:17;;;;;;;1.90;0.70;;;18.80;62.10;;;;;;5081124;28;20081;-88
2022/09/02 02:17:43;;;;;;;1.58;0.75;;;18.80;61.90;;;;;;5061821;28;20360;-87
2022/09/02 02:20:11;;;;;;;2.00;0.50;;;18.80;61.90;;;;;;5061490;28;20460;-87
2022/09/02 02:22:38;;;;;;;2.67;0.60;;;18.80;61.80;;;;;;5079038;28;20048;-88
2022/09/02 02:25:10;;;;;;;1.98;0.70;;;18.80;61.80;;;;;;5079938;28;20025;-88
2022/09/02 02:27:36;;;;;;;1.05;0.60;;;18.80;61.90;;;;;;5062501;28;20033;-87
2022/09/02 02:30:05;;;;;;;1.50;0.60;;;18.80;61.80;;;;;;5061118;28;20111;-86
2022/09/02 02:32:36;;;;;;;1.23;0.50;;;18.80;61.50;;;;;;5078526;28;20021;-88
2022/09/02 02:35:02;;;;;;;;;;;18.70;61.50;;;;;;5045959;28;20032;-88
2022/09/02 02:37:28;;;;;;;1.23;0.65;;;18.70;61.50;;;;;;5061822;28;20331;-85
2022/09/02 02:39:54;;;;;;;1.73;0.60;;;18.70;61.50;;;;;;5079027;28;20016;-87
2022/09/02 02:42:22;;;;;;;0.90;0.60;;;18.70;61.40;;;;;;5061237;28;20024;-87
2022/09/02 02:44:48;;;;;;;3.90;0.90;;;18.80;61.50;;;;;;5045017;28;20037;-88
2022/09/02 02:47:15;;;;;;;1.10;0.70;;;18.80;61.30;;;;;;5061116;28;20065;-88
2022/09/02 02:49:42;;;;;;;1.10;0.60;;;18.80;61.20;;;;;;5061156;28;20024;-88
2022/09/02 02:52:09;;;;;;;0.68;0.50;;;18.70;61.20;;;;;;5061515;28;20037;-87
2022/09/02 02:54:46;;;;;;;1.95;1.02;;;18.70;61.30;;;;;;5060772;28;20027;-88
2022/09/02 02:57:14;;;;;;;2.47;0.50;;;18.70;61.30;;;;;;5060836;28;20381;-88
2022/09/02 02:59:41;;;;;;;0.70;0.60;;;18.60;61.30;;;;;;5060772;28;20544;-88
2022/09/02 03:02:10;;;;;;;1.35;0.70;;;18.50;61.30;;;;;;5060513;28;20037;-88
2022/09/02 03:04:44;;;;;;;1.65;0.77;;;18.40;61.60;;;;;;5077153;28;20031;-86
2022/09/02 03:07:09;;;;;;;0.77;0.70;;;18.40;61.70;;;;;;5077937;28;20051;-88
2022/09/02 03:09:35;;;;;;;1.23;0.70;;;18.40;61.80;;;;;;5060490;28;20115;-86
2022/09/02 03:12:01;;;;;;;2.95;0.70;;;18.40;61.80;;;;;;5060922;28;20025;-89
2022/09/02 03:14:28;;;;;;;2.03;0.80;;;18.40;61.80;;;;;;5077533;28;20469;-87
2022/09/02 03:16:54;;;;;;;0.63;0.60;;;18.40;61.70;;;;;;5078865;28;20393;-88
2022/09/02 03:19:22;;;;;;;2.38;0.80;;;18.50;61.70;;;;;;5078130;28;20109;-88
2022/09/02 03:21:48;;;;;;;1.35;0.75;;;18.40;61.70;;;;;;5059896;28;20450;-86
2022/09/02 03:24:16;;;;;;;2.25;1.10;;;18.40;61.90;;;;;;5060562;28;20056;-88
2022/09/02 03:26:42;;;;;;;1.75;0.90;;;18.40;61.80;;;;;;5043864;28;20031;-87
2022/09/02 03:29:08;;;;;;;1.15;0.60;;;18.30;61.70;;;;;;5060675;28;20033;-87
2022/09/02 03:31:40;;;;;;;1.23;0.80;;;18.30;61.90;;;;;;5059876;28;20036;-88
2022/09/02 03:34:06;;;;;;;1.20;0.63;;;18.30;61.90;;;;;;5060331;28;20017;-88
2022/09/02 03:36:37;;;;;;;1.33;0.80;;;18.40;61.90;;;;;;5059974;28;20035;-87
2022/09/02 03:39:04;;;;;;;;;;;18.30;61.80;;;;;;5078357;28;20052;-88
2022/09/02 03:41:29;;;;;;;2.45;0.63;;;18.30;61.90;;;;;;5077891;28;19908;-87
2022/09/02 03:43:59;;;;;;;1.40;0.90;;;18.20;62.00;;;;;;5060527;28;20036;-87
2022/09/02 03:46:25;;;;;;;1.70;0.85;;;18.20;62.10;;;;;;5060604;28;20119;-89
2022/09/02 03:48:50;;;;;;;1.63;0.88;;;18.10;62.20;;;;;;5062555;28;20020;-87
2022/09/02 03:51:21;;;;;;;1.65;1.00;;;18.10;62.20;;;;;;5068348;28;20056;-87
2022/09/02 03:53:50;;;;;;;1.60;0.90;;;18.20;62.30;;;;;;5081227;28;20009;-87
2022/09/02 03:56:24;;;;;;;0.95;0.70;;;18.10;62.20;;;;;;5098705;28;20013;-87
2022/09/02 03:58:51;;;;;;;1.20;0.80;;;18.10;62.30;;;;;;5065568;28;20013;-89
2022/09/02 04:01:23;;;;;;;2.92;0.80;;;18.10;62.30;;;;;;5064426;28;20024;-87
2022/09/02 04:03:49;;;;;;;1.13;0.85;;;18.10;62.40;;;;;;5081326;28;20108;-87
2022/09/02 04:06:18;;;;;;;1.73;0.60;;;18.10;62.30;;;;;;5079428;28;20008;-88
2022/09/02 04:08:48;;;;;;;1.02;0.68;;;18.10;62.20;;;;;;5064936;28;20074;-88
2022/09/02 04:11:17;;;;;;;2.42;1.05;;;18.10;62.30;;;;;;5078555;28;20457;-87
2022/09/02 04:13:44;;;;;;;1.02;0.85;;;18.10;62.90;;;;;;5060278;28;20032;-86
2022/09/02 04:16:13;;;;;;;1.50;0.70;;;18.10;62.40;;;;;;5078112;28;20055;-88
2022/09/02 04:18:40;;;;;;;0.88;0.73;;;18.10;62.70;;;;;;5058952;28;20116;-88
2022/09/02 04:21:09;;;;;;;2.83;0.90;;;18.10;62.40;;;;;;5059169;28;20070;-89
2022/09/02 04:23:36;;;;;;;1.25;0.80;;;18.10;62.40;;;;;;5077593;28;20064;-88
2022/09/02 04:26:14;;;;;;;2.25;1.00;;;18.10;62.40;;;;;;5059070;28;20055;-87
2022/09/02 04:28:40;;;;;;;1.50;0.95;;;18.10;62.50;;;;;;5077140;28;20024;-88
2022/09/02 04:31:11;;;;;;;1.05;0.70;;;18.00;62.60;;;;;;5043233;28;20055;-87
2022/09/02 04:33:49;;;;;;;3.42;1.15;;;17.90;62.70;;;;;;5059985;28;20043;-87
2022/09/02 04:36:17;;;;;;;1.45;1.00;;;17.90;62.80;;;;;;5059880;28;20384;-88
2022/09/02 04:38:51;;;;;;;0.80;0.60;;;17.90;62.90;;;;;;5077598;28;20373;-88
2022/09/02 04:41:21;;;;;;;1.00;0.73;;;17.90;62.90;;;;;;5059143;28;20029;-89
2022/09/02 04:43:48;;;;;;;4.27;1.13;;;18.00;62.90;;;;;;5059404;28;20498;-87
2022/09/02 04:46:15;;;;;;;2.63;0.95;;;17.90;62.80;;;;;;5059715;28;20259;-88
2022/09/02 04:48:42;;;;;;;1.98;0.95;;;17.90;62.90;;;;;;5077796;28;20024;-88
2022/09/02 04:51:13;;;;;;;3.00;0.88;;;17.90;63.00;;;;;;5059773;28;20048;-91
2022/09/02 04:53:39;;;;;;;2.85;1.20;;;17.80;63.20;;;;;;5059465;28;20024;-89
2022/09/02 04:56:13;;;;;;;1.35;0.80;;;17.80;63.20;;;;;;5058913;28;20016;-89
2022/09/02 04:58:40;;;;;;;1.35;0.85;;;17.80;63.20;;;;;;5077157;28;20551;-88
2022/09/02 05:01:16;;;;;;;1.20;0.70;;;17.90;63.20;;;;;;5059829;28;20472;-90
2022/09/02 05:03:43;;;;;;;2.42;0.90;;;17.90;63.20;;;;;;5061088;28;20029;-90
2022/09/02 05:06:18;;;;;;;1.92;0.77;;;17.90;63.10;;;;;;5078296;28;20021;-89
2022/09/02 05:08:46;;;;;;;3.20;1.00;;;17.90;63.20;;;;;;5045500;28;20033;-89
2022/09/02 05:11:17;;;;;;;1.70;0.80;;;17.90;63.40;;;;;;5061410;28;20032;-88
2022/09/02 05:13:50;;;;;;;0.77;0.65;;;17.80;63.40;;;;;;5061995;28;20114;-88
2022/09/02 05:16:25;;;;;;;0.95;0.68;;;17.80;63.40;;;;;;5061524;28;20116;-88
2022/09/02 05:18:53;;;;;;;1.27;0.52;;;17.80;63.50;;;;;;5044201;28;20036;-89
2022/09/02 05:21:22;;;;;;;3.55;0.80;;;17.80;63.60;;;;;;5058528;28;20053;-89
2022/09/02 05:23:49;;;;;;;1.05;0.68;;;17.80;63.60;;;;;;5076004;28;20031;-90
2022/09/02 05:26:15;;;;;;;0.90;0.68;;;17.70;63.70;;;;;;5077130;28;20023;-87
2022/09/02 05:28:42;;;;;;;3.67;0.90;;;17.80;63.80;;;;;;5064555;28;20055;-88
2022/09/02 05:31:11;;;;;;;2.53;0.80;;;17.80;63.70;;;;;;5047588;28;20035;-87
2022/09/02 05:33:39;;;;;;;1.80;0.80;;;17.80;63.80;;;;;;5064147;28;20017;-88
2022/09/02 05:36:11;;;;;;;1.42;0.70;;;17.80;63.80;;;;;;5072607;28;20036;-88
2022/09/02 05:38:39;;;;;;;2.20;0.90;;;17.80;63.90;;;;;;5090849;28;20070;-88
2022/09/02 05:41:09;;;;;;;1.58;0.70;;;17.80;63.80;;;;;;5073164;28;20031;-86
2022/09/02 05:43:38;;;;;;;3.88;0.93;;;17.70;63.80;;;;;;5087537;28;20120;-86
2022/09/02 05:46:09;;;;;;;2.50;1.00;;;17.80;63.90;;;;;;5065574;28;20025;-87
2022/09/02 05:51:24;;;;;;;2.55;0.70;;;17.80;64.00;;;;;;5101091;28;20043;-87
2022/09/02 05:53:55;;;;;;;2.22;0.80;;;17.80;64.10;;;;;;5082554;28;20028;-85
2022/09/02 05:56:21;;;;;;;;;;;17.80;64.10;;;;;;5083625;28;20044;-86
2022/09/02 05:58:48;;;;;;;3.53;0.90;;;17.80;64.10;;;;;;5097698;28;19904;-86
2022/09/02 06:01:16;;;;;;;4.30;0.90;;;17.80;64.10;;;;;;5071003;28;20032;-86
2022/09/02 06:03:42;;;;;;;3.33;1.00;;;17.90;64.20;;;;;;5063931;28;20116;-87
2022/09/02 06:06:09;;;;;;;3.25;0.95;;;17.90;64.10;;;;;;5064995;28;20465;-88
2022/09/02 06:08:37;;;;;;;1.63;0.85;;;17.90;64.10;;;;;;5047492;28;20021;-83
2022/09/02 06:11:06;;;;;;;2.30;1.00;;;18.00;64.20;;;;;;5064199;28;20024;-83
2022/09/02 06:13:37;;;;;;;1.23;0.80;;;18.00;64.10;;;;;;5063234;28;20025;-85
2022/09/02 06:16:04;;;;;;;4.57;0.93;;;18.00;64.20;;;;;;5062957;28;20030;-85
2022/09/02 06:18:32;;;;;;;1.33;0.70;;;18.00;64.10;;;;;;5062315;28;20093;-87
2022/09/02 06:21:00;;;;;;;2.45;0.90;;;18.00;64.20;;;;;;5062861;28;20037;-89
2022/09/02 06:23:28;;;;;;;2.10;0.77;;;18.10;64.30;;;;;;5080688;28;20498;-89
2022/09/02 06:25:57;;;;;;;1.52;0.82;;;18.10;64.20;;;;;;5063562;28;20021;-89
2022/09/02 06:28:23;;;;;;;1.10;0.95;;;18.20;64.00;;;;;;5061525;28;20024;-85
2022/09/02 06:30:56;;;;;;;2.08;1.02;;;18.20;64.00;;;;;;5081110;28;20035;-90
2022/09/02 06:33:22;;;;;;;1.77;0.75;;;18.20;63.90;;;;;;5046966;28;20036;-90
2022/09/02 06:35:48;;;;;;;2.05;1.08;;;18.20;63.80;;;;;;5062169;28;20082;-88
2022/09/02 06:38:19;;;;;;;2.70;0.90;;;18.20;64.00;;;;;;5062020;28;20032;-87
2022/09/02 06:40:50;;;;;;;1.80;0.93;;;18.20;64.00;;;;;;5079926;28;20081;-89
2022/09/02 06:43:19;;;;;;;1.70;0.95;;;18.20;63.90;;;;;;5062620;28;20143;-87
2022/09/02 06:45:50;;;;;;;4.85;0.90;;;18.20;63.90;;;;;;5062731;28;20409;-88
2022/09/02 06:48:17;;;;;;;2.28;0.90;;;18.20;64.00;;;;;;5080356;28;20044;-89
2022/09/02 06:50:50;;;;;;;2.17;0.90;;;18.30;64.00;;;;;;5046120;28;20021;-88
2022/09/02 06:53:18;;;;;;;2.88;1.55;;;18.30;64.00;;;;;;5062834;28;20024;-90
2022/09/02 06:55:44;;;;;;;3.88;1.25;;;18.30;64.00;;;;;;5062323;28;20075;-87
2022/09/02 06:58:17;;;;;;;2.35;1.20;;;18.30;64.00;;;;;;5063308;28;20036;-87
2022/09/02 07:00:45;;;;;;;2.05;0.93;;;18.30;63.90;;;;;;5080897;28;20074;-89
2022/09/02 07:06:08;;;;;;;2.00;1.00;;;18.30;64.20;;;;;;5051520;28;20102;-89
2022/09/02 07:08:39;;;;;;;1.27;0.98;;;18.30;64.30;;;;;;5062412;28;20047;-88
2022/09/02 07:11:06;;;;;;;3.60;0.90;;;18.30;64.30;;;;;;5062085;28;20028;-88
2022/09/02 07:13:33;;;;;;;4.90;0.80;;;18.30;64.40;;;;;;5062554;28;20025;-89
2022/09/02 07:16:03;;;;;;;1.90;1.20;;;18.30;64.50;;;;;;5080536;28;20023;-88
2022/09/02 07:18:30;;;;;;;1.60;0.95;;;18.40;64.50;;;;;;5063451;28;20032;-88
2022/09/02 07:20:56;;;;;;;1.50;0.75;;;18.50;64.60;;;;;;5062631;28;20044;-87
2022/09/02 07:23:23;;;;;;;1.85;0.90;;;18.60;64.50;;;;;;5046201;28;20056;-88
2022/09/02 07:25:51;;;;;;;1.70;0.80;;;18.60;64.50;;;;;;5063911;28;20033;-89
2022/09/02 07:28:19;;;;;;;3.42;1.20;;;18.70;64.50;;;;;;5063806;28;20027;-88
2022/09/02 07:30:44;;;;;;;3.40;1.08;;;18.80;64.50;;;;;;5089610;28;20028;-88
2022/09/02 07:33:14;;;;;;;2.67;0.90;;;18.80;64.40;;;;;;5070652;28;20029;-88
2022/09/02 07:35:41;;;;;;;2.25;0.98;;;18.90;64.50;;;;;;5052060;28;20040;-88
2022/09/02 07:38:10;;;;;;;1.35;0.80;;;18.90;64.50;;;;;;5065685;28;20487;-89
2022/09/02 07:40:42;;;;;;;2.25;1.00;;;19.00;64.40;;;;;;5064486;28;20028;-88
2022/09/02 07:43:12;;;;;;;3.00;1.00;;;19.20;64.40;;;;;;5069209;28;20036;-88
2022/09/02 07:45:42;;;;;;;1.70;1.02;;;19.20;64.20;;;;;;5081734;28;20017;-88
2022/09/02 07:48:11;;;;;;;1.73;0.80;;;19.30;64.20;;;;;;5098960;28;20005;-87
2022/09/02 07:50:38;;;;;;;1.35;0.82;;;19.40;64.10;;;;;;5098151;28;20047;-88
2022/09/02 07:53:05;;;;;;;1.85;0.80;;;19.50;64.00;;;;;;5080284;28;20029;-87
2022/09/02 07:55:35;;;;;;;4.10;0.70;;;19.60;63.90;;;;;;5090742;28;20020;-90
2022/09/02 07:58:01;;;;;;;2.22;0.98;;;19.70;63.80;;;;;;5061204;28;20028;-89
2022/09/02 08:00:28;;;;;;;3.35;0.90;;;19.80;63.60;;;;;;5044661;28;20158;-89
2022/09/02 08:02:56;;;;;;;2.20;0.90;;;20.00;63.50;;;;;;5061526;28;20047;-87
2022/09/02 08:05:22;;;;;;;2.30;1.27;;;20.10;63.20;;;;;;5061373;28;20025;-88
2022/09/02 08:07:48;;;;;;;4.00;0.80;;;20.20;62.90;;;;;;5078601;28;20027;-88
2022/09/02 08:10:16;;;;;;;1.40;0.80;;;20.30;63.00;;;;;;5043738;28;20024;-88
2022/09/02 08:12:43;;;;;;;3.88;1.10;;;20.40;62.80;;;;;;5028080;28;20032;-89
2022/09/02 08:15:11;;;;;;;2.15;0.93;;;20.50;62.30;;;;;;5077434;28;20020;-87
2022/09/02 08:17:40;;;;;;;2.45;1.00;;;20.60;62.10;;;;;;5061146;28;20024;-88
2022/09/02 08:20:08;;;;;;;2.78;1.00;;;20.70;62.00;;;;;;5061117;28;20028;-89
2022/09/02 08:22:35;;;;;;;1.90;0.98;;;20.80;61.80;;;;;;5040579;28;20069;-88
2022/09/02 08:25:02;;;;;;;1.88;0.90;;;20.90;61.60;;;;;;5057473;28;20547;-89
2022/09/02 08:27:31;;;;;;;3.38;1.27;;;21.00;61.60;;;;;;5058837;28;20083;-89
2022/09/02 08:30:01;;;;;;;4.88;1.13;;;21.10;61.30;;;;;;5040901;28;20487;-88
2022/09/02 08:32:28;;;;;;;4.13;1.00;;;21.20;61.20;;;;;;5057369;28;20021;-88
2022/09/02 08:34:54;;;;;;;2.55;1.30;;;21.20;61.10;;;;;;5056487;28;20029;-88
2022/09/02 08:37:20;;;;;;;4.22;1.23;;;21.30;60.90;;;;;;5039840;28;20187;-88
2022/09/02 08:39:47;;;;;;;1.92;1.20;;;21.30;60.90;;;;;;5056971;28;20044;-87
2022/09/02 08:42:29;;;;;;;3.58;1.20;;;21.40;60.50;;;;;;5057009;28;20021;-88
2022/09/02 08:45:04;;;;;;;1.90;1.00;;;21.50;60.80;;;;;;5057956;28;20040;-89
2022/09/02 08:47:32;;;;;;;2.45;1.10;;;21.50;60.80;;;;;;5056848;28;20124;-89
2022/09/02 08:50:09;;;;;;;1.98;1.17;;;21.60;60.80;;;;;;5057165;28;20057;-89
2022/09/02 08:53:00;;;;;;;3.33;1.38;;;21.70;60.80;;;;;;5057174;28;20036;-88
2022/09/02 08:55:54;;;;;;;3.47;1.15;;;21.80;60.60;;;;;;5057256;28;20111;-90
2022/09/02 08:58:24;;;;;;;2.00;1.40;;;21.80;60.50;;;;;;5057588;28;20033;-89
2022/09/02 09:01:31;;;;;;;3.20;0.90;;;21.90;60.30;;;;;;5058170;28;20032;-87
2022/09/02 09:04:38;;;;;;;3.00;1.17;;;21.90;60.20;;;;;;5031720;28;20033;-88
2022/09/02 09:07:42;;;;;;;3.17;1.10;;;22.00;60.30;;;;;;5065416;28;20087;-89
2022/09/02 09:10:10;;;;;;;4.60;1.00;;;22.00;60.30;;;;;;5066385;28;20384;-89
2022/09/02 09:12:42;;;;;;;1.30;0.82;;;22.10;60.10;;;;;;5067683;28;20029;-88
2022/09/02 09:15:42;;;;;;;2.80;1.10;;;22.20;60.20;;;;;;5069372;28;20120;-88
2022/09/02 09:18:15;;;;;;;2.13;1.10;;;22.30;60.30;;;;;;5040973;28;20029;-89
2022/09/02 09:20:43;;;;;;;1.52;0.98;;;22.40;60.30;;;;;;5072914;28;20028;-89
2022/09/02 09:23:39;;;;;;;2.50;1.20;;;22.40;60.30;;;;;;5069025;28;20489;-89
2022/09/02 09:26:16;;;;;;;1.70;1.10;;;22.50;60.00;;;;;;5029643;28;20443;-88
2022/09/02 09:28:58;;;;;;;2.85;1.30;;;22.50;60.00;;;;;;5045903;28;20026;-89
2022/09/02 09:31:29;;;;;;;2.95;1.20;;;22.70;60.00;;;;;;5042118;28;20029;-89
2022/09/02 09:34:11;;;;;;;2.97;1.33;;;22.70;60.00;;;;;;5043290;28;20030;-88
2022/09/02 09:36:39;;;;;;;2.10;1.20;;;22.80;59.80;;;;;;5042852;28;20029;-88
2022/09/02 09:39:28;;;;;;;1.70;1.15;;;22.80;59.70;;;;;;5042080;28;20030;-88
2022/09/02 09:42:15;;;;;;;2.58;1.30;;;22.90;59.80;;;;;;5041612;28;20029;-88
2022/09/02 09:44:45;;;;;;;1.60;1.13;;;22.90;59.60;;;;;;5049269;28;20021;-88
2022/09/02 09:47:41;;;;;;;3.05;1.35;;;23.10;59.50;;;;;;5044200;28;20033;-88
2022/09/02 09:50:15;;;;;;;4.10;1.42;;;23.00;59.40;;;;;;5045782;28;20076;-89
2022/09/02 09:52:41;;;;;;;1.80;1.20;;;23.10;59.10;;;;;;5059610;28;20097;-90
2022/09/02 09:55:16;;;;;;;2.75;1.45;;;23.10;58.90;;;;;;5058675;28;20130;-88
2022/09/02 09:57:45;;;;;;;3.42;1.30;;;23.20;59.10;;;;;;5049473;28;20533;-88
2022/09/02 10:00:28;;;;;;;2.85;1.17;;;23.30;59.20;;;;;;5041436;28;20033;-88
2022/09/02 10:03:00;;;;;;;1.50;1.00;;;23.30;59.10;;;;;;5041758;28;20091;-89
2022/09/02 10:05:27;;;;;;;1.70;1.20;;;23.40;59.10;;;;;;5041327;28;20092;-88
2022/09/02 10:08:03;;;;;;;2.70;1.20;;;23.50;59.10;;;;;;5041825;28;20022;-87
2022/09/02 10:10:32;;;;;;;6.38;1.20;;;23.60;58.80;;;;;;5041390;28;20025;-90
2022/09/02 10:13:17;;;;;;;2.67;1.17;;;23.60;58.60;;;;;;5023741;28;20459;-87
2022/09/02 10:16:16;;;;;;;2.78;1.02;;;23.70;58.80;;;;;;5040445;28;20420;-88
2022/09/02 10:18:55;;;;;;;2.42;1.40;;;23.70;58.70;;;;;;5040477;28;20025;-88
2022/09/02 10:21:53;;;;;;;3.28;1.70;;;23.80;58.60;;;;;;5042790;28;20034;-88
2022/09/02 10:24:26;;;;;;;5.00;1.70;;;23.80;58.40;;;;;;5063346;28;20047;-89
2022/09/02 10:27:00;;;;;;;1.40;1.00;;;23.90;58.60;;;;;;5080893;28;20060;-89
2022/09/02 10:29:50;;;;;;;1.40;1.10;;;23.90;58.50;;;;;;5081461;28;20017;-91
2022/09/02 10:32:54;;;;;;;3.22;1.35;;;23.90;58.30;;;;;;5063243;28;20036;-88
2022/09/02 10:35:38;;;;;;;5.28;1.10;;;24.00;58.20;;;;;;5013894;28;20044;-89
2022/09/02 10:38:28;;;;;;;2.45;1.27;;;24.10;58.30;;;;;;5062686;28;20383;-87
2022/09/02 10:41:24;;;;;;;1.43;1.03;;;24.20;58.30;;;;;;5080651;28;20517;-89
2022/09/02 10:44:14;;;;;;;2.33;1.20;;;24.30;58.50;;;;;;5062889;28;20032;-89
2022/09/02 10:47:14;;;;;;;1.58;1.20;;;24.30;58.40;;;;;;5064745;28;20455;-88
2022/09/02 10:50:21;;;;;;;2.72;2.13;;;24.40;58.30;;;;;;5064987;28;20021;-89
2022/09/02 10:53:21;;;;;;;5.07;2.05;;;24.40;58.20;;;;;;5063930;28;20028;-90
2022/09/02 10:56:14;;;;;;;1.75;1.30;;;24.50;58.20;;;;;;5078895;28;20059;-89
2022/09/02 10:59:06;;;;;;;2.25;1.55;;;24.60;58.10;;;;;;5062429;28;20464;-90
2022/09/02 11:01:57;;;;;;;3.20;1.48;;;24.60;57.70;;;;;;5080730;28;20032;-88
2022/09/02 11:05:00;;;;;;;1.42;1.13;;;24.70;57.90;;;;;;5060755;28;20040;-89
2022/09/02 11:07:54;;;;;;;3.95;1.20;;;24.70;57.70;;;;;;5062079;28;20411;-89
2022/09/02 11:10:53;;;;;;;2.33;1.30;;;24.70;57.60;;;;;;5074350;28;20029;-89
2022/09/02 11:13:23;;;;;;;3.63;1.27;;;24.80;57.70;;;;;;5059881;28;20122;-89
2022/09/02 11:16:03;;;;;;;2.58;1.50;;;24.90;57.40;;;;;;5062105;28;20020;-89
2022/09/02 11:18:42;;;;;;;2.35;1.20;;;24.90;57.20;;;;;;5062069;28;20039;-90
2022/09/02 11:21:36;;;;;;;1.83;1.20;;;24.90;57.00;;;;;;5062204;28;20028;-89
2022/09/02 11:24:33;;;;;;;4.10;1.10;;;24.90;57.20;;;;;;5061606;28;20079;-89
2022/09/02 11:27:13;;;;;;;2.17;1.52;;;25.10;57.20;;;;;;5078991;28;20078;-90
2022/09/02 11:29:55;;;;;;;3.70;1.55;;;25.10;57.30;;;;;;5061403;28;20033;-90
2022/09/02 11:32:40;;;;;;;3.35;1.30;;;25.20;57.40;;;;;;5079951;28;20025;-88
2022/09/02 11:35:13;;;;;;;3.10;1.48;;;25.20;57.00;;;;;;5080170;28;20024;-89
2022/09/02 11:38:03;;;;;;;3.33;1.58;;;25.30;57.10;;;;;;5061993;28;20068;-91
2022/09/02 11:40:38;;;;;;;1.77;1.40;;;25.30;56.90;;;;;;5061199;28;20021;-89
2022/09/02 11:43:17;;;;;;;2.58;1.23;;;25.30;56.60;;;;;;5060660;28;20333;-89
2022/09/02 11:46:14;;;;;;;1.60;1.17;;;25.40;55.90;;;;;;5079915;28;20020;-90
2022/09/02 11:49:20;;;;;;;1.30;1.10;;;25.50;55.60;;;;;;5062402;28;20025;-90
2022/09/02 11:52:19;;;;;;;2.78;1.50;;;25.50;54.90;;;;;;5064982;28;20024;-88
2022/09/02 11:54:47;;;;;;;2.10;1.25;;;25.60;54.70;;;;;;5081704;28;20028;-87
2022/09/02 11:57:25;;;;;;;1.85;1.30;;;25.60;54.60;;;;;;5098853;28;20039;-88
2022/09/02 11:59:51;;;;;;;4.18;1.15;;;25.60;54.30;;;;;;5082435;28;20004;-89
2022/09/02 12:02:55;;;;;;;2.67;1.30;;;25.70;54.30;;;;;;5080439;28;20031;-89
2022/09/02 12:05:33;;;;;;;5.03;1.30;;;25.70;54.00;;;;;;5095901;28;20024;-90
2022/09/02 12:08:36;;;;;;;1.63;1.27;;;25.70;53.80;;;;;;5061741;28;20365;-88
2022/09/02 12:11:05;;;;;;;2.60;1.20;;;25.70;53.70;;;;;;5022679;28;20032;-87
2022/09/02 12:13:47;;;;;;;2.17;1.30;;;25.70;53.60;;;;;;5061758;28;20031;-90
2022/09/02 12:16:25;;;;;;;1.98;1.10;;;25.80;53.70;;;;;;5080340;28;20047;-89
2022/09/02 12:18:54;;;;;;;0.90;0.90;;;25.80;54.10;;;;;;5061729;28;20084;-88
2022/09/02 12:21:21;;;;;;;1.13;0.98;;;25.90;53.30;;;;;;5079089;28;20036;-89
2022/09/02 12:23:53;;;;;;;2.15;1.30;;;25.90;53.10;;;;;;5040992;28;20064;-90
2022/09/02 12:26:28;;;;;;;1.27;1.00;;;26.00;53.00;;;;;;5058158;28;20047;-88
2022/09/02 12:29:18;;;;;;;4.60;1.20;;;26.10;52.60;;;;;;5057866;28;20021;-88
2022/09/02 12:31:46;;;;;;;2.30;1.42;;;26.10;52.40;;;;;;5058175;28;20068;-89
2022/09/02 12:34:24;;;;;;;2.00;1.38;;;26.10;51.90;;;;;;5058482;28;20017;-90
2022/09/02 12:36:56;;;;;;;1.80;1.40;;;26.10;51.60;;;;;;5058753;28;20048;-88
2022/09/02 12:39:27;;;;;;;1.33;1.00;;;26.00;51.70;;;;;;5062567;28;20097;-90
2022/09/02 12:42:17;;;;;;;3.17;1.33;;;26.10;52.10;;;;;;5063951;28;20052;-90
2022/09/02 12:48:14;;;;;;;1.73;1.42;;;26.20;51.70;;;;;;5053848;28;20124;-88
2022/09/02 12:50:48;;;;;;;1.40;1.02;;;26.20;51.50;;;;;;5065654;28;20048;-89
2022/09/02 12:53:25;;;;;;;1.55;1.20;;;26.20;51.60;;;;;;5069425;28;20029;-91
2022/09/02 13:03:35;;;;;;;;;;;;;;;;;;;;;
2022/09/02 13:06:33;;;;;;;2.05;1.15;;;26.50;51.50;;;;;;5077583;28;20017;-90
2022/09/02 13:12:50;;;;;;;1.30;1.20;;;26.50;51.50;;;;;;5079489;28;20124;-88
2022/09/02 13:16:10;;;;;;;1.25;1.08;;;26.50;51.50;;;;;;5063903;28;20040;-88
2022/09/02 13:18:39;;;;;;;1.98;1.27;;;26.50;51.30;;;;;;5000680;28;20034;-88
2022/09/02 13:21:48;;;;;;;1.85;1.40;;;26.50;51.40;;;;;;5058310;28;20037;-88
2022/09/02 13:24:43;;;;;;;3.25;1.30;;;26.40;51.50;;;;;;5060920;28;20045;-87
2022/09/02 13:27:31;;;;;;;1.48;1.38;;;26.50;51.60;;;;;;5059349;28;20024;-89
2022/09/02 13:30:21;;;;;;;1.83;1.23;;;26.50;51.60;;;;;;5060378;28;20082;-88
2022/09/02 13:33:10;;;;;;;1.73;1.13;;;26.50;51.50;;;;;;5060139;28;20039;-89
2022/09/02 13:35:40;;;;;;;4.38;1.40;;;26.50;51.60;;;;;;5059276;28;20116;-88
2022/09/02 13:38:13;;;;;;;1.25;1.15;;;26.50;51.40;;;;;;5061217;28;20082;-88
2022/09/02 13:40:43;;;;;;;2.53;1.63;;;26.40;51.30;;;;;;5061383;28;20424;-89